sensor_id;sensor_type;location;lat;lon;timestamp;P1;durP1;ratioP1;P2;durP2;ratioP2
25559;SDS011;13450;49.374;8.584;2023-04-26T00:00:41;4.65;;;1.73;;
25559;SDS011;13450;49.374;8.584;2023-04-26T00:03:07;5.07;;;1.80;;
25559;SDS011;13450;49.374;8.584;2023-04-26T00:05:33;4.50;;;1.70;;
25559;SDS011;13450;49.374;8.584;2023-04-26T00:07:59;3.85;;;1.60;;
25559;SDS011;13450;49.374;8.584;2023-04-26T00:10:30;6.35;;;2.05;;
25559;SDS011;13450;49.374;8.584;2023-04-26T00:13:00;5.22;;;1.77;;
25559;SDS011;13450;49.374;8.584;2023-04-26T00:15:25;4.63;;;1.85;;
25559;SDS011;13450;49.374;8.584;2023-04-26T00:17:51;7.93;;;2.10;;
25559;SDS011;13450;49.374;8.584;2023-04-26T00:20:16;4.65;;;1.85;;
25559;SDS011;13450;49.374;8.584;2023-04-26T00:22:42;5.57;;;2.20;;
25559;SDS011;13450;49.374;8.584;2023-04-26T00:25:07;6.70;;;2.00;;
25559;SDS011;13450;49.374;8.584;2023-04-26T00:27:33;5.15;;;1.92;;
25559;SDS011;13450;49.374;8.584;2023-04-26T00:30:03;5.55;;;2.00;;
25559;SDS011;13450;49.374;8.584;2023-04-26T00:32:31;4.55;;;1.80;;
25559;SDS011;13450;49.374;8.584;2023-04-26T00:34:59;7.82;;;1.92;;
25559;SDS011;13450;49.374;8.584;2023-04-26T00:37:24;3.58;;;1.58;;
25559;SDS011;13450;49.374;8.584;2023-04-26T00:39:50;4.30;;;1.67;;
25559;SDS011;13450;49.374;8.584;2023-04-26T00:42:15;4.45;;;1.75;;
25559;SDS011;13450;49.374;8.584;2023-04-26T00:44:41;5.93;;;1.67;;
25559;SDS011;13450;49.374;8.584;2023-04-26T00:47:06;3.97;;;1.90;;
25559;SDS011;13450;49.374;8.584;2023-04-26T00:49:34;5.78;;;1.80;;
25559;SDS011;13450;49.374;8.584;2023-04-26T00:52:00;5.40;;;2.05;;
25559;SDS011;13450;49.374;8.584;2023-04-26T00:54:26;6.57;;;2.00;;
25559;SDS011;13450;49.374;8.584;2023-04-26T00:56:57;4.82;;;1.98;;
25559;SDS011;13450;49.374;8.584;2023-04-26T00:59:22;4.28;;;1.80;;
25559;SDS011;13450;49.374;8.584;2023-04-26T01:01:48;5.28;;;2.00;;
25559;SDS011;13450;49.374;8.584;2023-04-26T01:04:13;6.35;;;1.95;;
25559;SDS011;13450;49.374;8.584;2023-04-26T01:06:39;4.63;;;1.85;;
25559;SDS011;13450;49.374;8.584;2023-04-26T01:09:05;4.53;;;1.33;;
25559;SDS011;13450;49.374;8.584;2023-04-26T01:11:33;4.05;;;1.30;;
25559;SDS011;13450;49.374;8.584;2023-04-26T01:14:01;4.97;;;1.83;;
25559;SDS011;13450;49.374;8.584;2023-04-26T01:16:27;3.55;;;1.80;;
25559;SDS011;13450;49.374;8.584;2023-04-26T01:18:54;5.80;;;1.80;;
25559;SDS011;13450;49.374;8.584;2023-04-26T01:21:21;5.60;;;1.95;;
25559;SDS011;13450;49.374;8.584;2023-04-26T01:23:50;5.15;;;1.65;;
25559;SDS011;13450;49.374;8.584;2023-04-26T01:26:17;5.18;;;1.73;;
25559;SDS011;13450;49.374;8.584;2023-04-26T01:28:42;4.22;;;1.60;;
25559;SDS011;13450;49.374;8.584;2023-04-26T01:31:08;7.70;;;2.00;;
25559;SDS011;13450;49.374;8.584;2023-04-26T01:33:34;4.68;;;1.73;;
25559;SDS011;13450;49.374;8.584;2023-04-26T01:35:59;3.35;;;1.42;;
25559;SDS011;13450;49.374;8.584;2023-04-26T01:38:32;4.65;;;1.70;;
25559;SDS011;13450;49.374;8.584;2023-04-26T01:40:57;3.17;;;1.42;;
25559;SDS011;13450;49.374;8.584;2023-04-26T01:43:22;5.28;;;1.63;;
25559;SDS011;13450;49.374;8.584;2023-04-26T01:45:48;7.47;;;3.45;;
25559;SDS011;13450;49.374;8.584;2023-04-26T01:48:16;4.53;;;1.70;;
25559;SDS011;13450;49.374;8.584;2023-04-26T01:50:42;7.45;;;1.90;;
25559;SDS011;13450;49.374;8.584;2023-04-26T01:53:07;5.05;;;1.75;;
25559;SDS011;13450;49.374;8.584;2023-04-26T01:55:33;4.68;;;2.00;;
25559;SDS011;13450;49.374;8.584;2023-04-26T01:58:01;3.97;;;1.98;;
25559;SDS011;13450;49.374;8.584;2023-04-26T02:00:27;5.10;;;1.98;;
25559;SDS011;13450;49.374;8.584;2023-04-26T02:02:53;6.60;;;2.20;;
25559;SDS011;13450;49.374;8.584;2023-04-26T02:05:24;6.75;;;2.38;;
25559;SDS011;13450;49.374;8.584;2023-04-26T02:07:49;5.90;;;2.00;;
25559;SDS011;13450;49.374;8.584;2023-04-26T02:10:15;4.38;;;2.00;;
25559;SDS011;13450;49.374;8.584;2023-04-26T02:12:40;4.80;;;2.00;;
25559;SDS011;13450;49.374;8.584;2023-04-26T02:15:06;5.25;;;2.38;;
25559;SDS011;13450;49.374;8.584;2023-04-26T02:17:32;5.75;;;1.92;;
25559;SDS011;13450;49.374;8.584;2023-04-26T02:19:58;6.05;;;2.42;;
25559;SDS011;13450;49.374;8.584;2023-04-26T02:22:23;4.43;;;2.35;;
25559;SDS011;13450;49.374;8.584;2023-04-26T02:24:50;5.05;;;3.00;;
25559;SDS011;13450;49.374;8.584;2023-04-26T02:27:16;5.35;;;2.08;;
25559;SDS011;13450;49.374;8.584;2023-04-26T02:29:42;7.35;;;2.33;;
25559;SDS011;13450;49.374;8.584;2023-04-26T02:32:07;5.80;;;2.58;;
25559;SDS011;13450;49.374;8.584;2023-04-26T02:34:32;4.93;;;2.00;;
25559;SDS011;13450;49.374;8.584;2023-04-26T02:37:01;4.57;;;2.13;;
25559;SDS011;13450;49.374;8.584;2023-04-26T02:39:27;5.70;;;2.05;;
25559;SDS011;13450;49.374;8.584;2023-04-26T02:41:53;4.20;;;1.90;;
25559;SDS011;13450;49.374;8.584;2023-04-26T02:44:19;4.25;;;1.73;;
25559;SDS011;13450;49.374;8.584;2023-04-26T02:46:44;4.60;;;1.90;;
25559;SDS011;13450;49.374;8.584;2023-04-26T02:49:10;4.40;;;2.08;;
25559;SDS011;13450;49.374;8.584;2023-04-26T02:51:35;4.00;;;1.80;;
25559;SDS011;13450;49.374;8.584;2023-04-26T02:54:00;5.25;;;2.20;;
25559;SDS011;13450;49.374;8.584;2023-04-26T02:56:27;6.70;;;2.33;;
25559;SDS011;13450;49.374;8.584;2023-04-26T02:58:52;5.72;;;2.15;;
25559;SDS011;13450;49.374;8.584;2023-04-26T03:01:17;3.55;;;1.95;;
25559;SDS011;13450;49.374;8.584;2023-04-26T03:03:43;8.38;;;2.20;;
25559;SDS011;13450;49.374;8.584;2023-04-26T03:06:08;5.38;;;2.22;;
25559;SDS011;13450;49.374;8.584;2023-04-26T03:08:34;5.60;;;2.20;;
25559;SDS011;13450;49.374;8.584;2023-04-26T03:11:00;4.20;;;2.10;;
25559;SDS011;13450;49.374;8.584;2023-04-26T03:13:26;5.65;;;2.08;;
25559;SDS011;13450;49.374;8.584;2023-04-26T03:15:51;4.80;;;1.80;;
25559;SDS011;13450;49.374;8.584;2023-04-26T03:18:17;6.28;;;2.40;;
25559;SDS011;13450;49.374;8.584;2023-04-26T03:20:44;3.45;;;1.60;;
25559;SDS011;13450;49.374;8.584;2023-04-26T03:23:12;5.28;;;1.95;;
25559;SDS011;13450;49.374;8.584;2023-04-26T03:25:38;4.90;;;2.00;;
25559;SDS011;13450;49.374;8.584;2023-04-26T03:28:03;7.78;;;2.42;;
25559;SDS011;13450;49.374;8.584;2023-04-26T03:30:31;7.50;;;2.88;;
25559;SDS011;13450;49.374;8.584;2023-04-26T03:32:57;5.20;;;2.50;;
25559;SDS011;13450;49.374;8.584;2023-04-26T03:35:22;8.82;;;2.97;;
25559;SDS011;13450;49.374;8.584;2023-04-26T03:37:47;5.05;;;2.00;;
25559;SDS011;13450;49.374;8.584;2023-04-26T03:40:13;4.85;;;2.40;;
25559;SDS011;13450;49.374;8.584;2023-04-26T03:42:43;4.95;;;1.95;;
25559;SDS011;13450;49.374;8.584;2023-04-26T03:45:08;3.47;;;1.92;;
25559;SDS011;13450;49.374;8.584;2023-04-26T03:47:39;5.30;;;2.40;;
25559;SDS011;13450;49.374;8.584;2023-04-26T03:50:08;4.53;;;1.83;;
25559;SDS011;13450;49.374;8.584;2023-04-26T03:52:34;5.53;;;2.00;;
25559;SDS011;13450;49.374;8.584;2023-04-26T03:54:59;5.53;;;2.50;;
25559;SDS011;13450;49.374;8.584;2023-04-26T03:57:25;6.18;;;2.47;;
25559;SDS011;13450;49.374;8.584;2023-04-26T03:59:50;5.88;;;1.90;;
25559;SDS011;13450;49.374;8.584;2023-04-26T04:02:16;5.63;;;2.08;;
25559;SDS011;13450;49.374;8.584;2023-04-26T04:04:41;6.30;;;1.95;;
25559;SDS011;13450;49.374;8.584;2023-04-26T04:07:06;7.03;;;2.33;;
25559;SDS011;13450;49.374;8.584;2023-04-26T04:09:32;5.70;;;2.25;;
25559;SDS011;13450;49.374;8.584;2023-04-26T04:11:57;5.05;;;1.75;;
25559;SDS011;13450;49.374;8.584;2023-04-26T04:14:22;5.47;;;2.00;;
25559;SDS011;13450;49.374;8.584;2023-04-26T04:16:48;4.55;;;1.88;;
25559;SDS011;13450;49.374;8.584;2023-04-26T04:19:13;6.50;;;2.20;;
25559;SDS011;13450;49.374;8.584;2023-04-26T04:24:36;5.15;;;2.38;;
25559;SDS011;13450;49.374;8.584;2023-04-26T04:27:02;7.50;;;2.97;;
25559;SDS011;13450;49.374;8.584;2023-04-26T04:29:28;6.85;;;2.58;;
25559;SDS011;13450;49.374;8.584;2023-04-26T04:32:02;9.35;;;3.08;;
25559;SDS011;13450;49.374;8.584;2023-04-26T04:34:27;8.50;;;3.15;;
25559;SDS011;13450;49.374;8.584;2023-04-26T04:36:53;6.10;;;3.10;;
25559;SDS011;13450;49.374;8.584;2023-04-26T04:39:24;8.15;;;3.08;;
25559;SDS011;13450;49.374;8.584;2023-04-26T04:41:52;11.55;;;4.30;;
25559;SDS011;13450;49.374;8.584;2023-04-26T04:44:18;8.45;;;3.95;;
25559;SDS011;13450;49.374;8.584;2023-04-26T04:46:44;9.05;;;2.50;;
25559;SDS011;13450;49.374;8.584;2023-04-26T04:49:10;8.98;;;2.95;;
25559;SDS011;13450;49.374;8.584;2023-04-26T04:51:38;9.48;;;3.25;;
25559;SDS011;13450;49.374;8.584;2023-04-26T04:56:35;7.05;;;2.67;;
25559;SDS011;13450;49.374;8.584;2023-04-26T04:59:00;7.38;;;2.10;;
25559;SDS011;13450;49.374;8.584;2023-04-26T05:01:29;7.18;;;2.60;;
25559;SDS011;13450;49.374;8.584;2023-04-26T05:03:58;6.13;;;2.50;;
25559;SDS011;13450;49.374;8.584;2023-04-26T05:06:26;4.85;;;2.28;;
25559;SDS011;13450;49.374;8.584;2023-04-26T05:08:52;9.25;;;2.78;;
25559;SDS011;13450;49.374;8.584;2023-04-26T05:11:18;7.10;;;3.30;;
25559;SDS011;13450;49.374;8.584;2023-04-26T05:13:43;6.00;;;2.97;;
25559;SDS011;13450;49.374;8.584;2023-04-26T05:16:10;8.38;;;3.25;;
25559;SDS011;13450;49.374;8.584;2023-04-26T05:18:36;6.43;;;2.70;;
25559;SDS011;13450;49.374;8.584;2023-04-26T05:21:01;7.70;;;3.45;;
25559;SDS011;13450;49.374;8.584;2023-04-26T05:23:26;5.00;;;2.50;;
25559;SDS011;13450;49.374;8.584;2023-04-26T05:25:52;7.40;;;2.60;;
25559;SDS011;13450;49.374;8.584;2023-04-26T05:28:17;5.88;;;2.05;;
25559;SDS011;13450;49.374;8.584;2023-04-26T05:30:42;5.80;;;2.42;;
25559;SDS011;13450;49.374;8.584;2023-04-26T05:33:08;6.53;;;2.50;;
25559;SDS011;13450;49.374;8.584;2023-04-26T05:35:33;5.95;;;2.72;;
25559;SDS011;13450;49.374;8.584;2023-04-26T05:37:59;5.70;;;2.60;;
25559;SDS011;13450;49.374;8.584;2023-04-26T05:40:24;7.90;;;3.25;;
25559;SDS011;13450;49.374;8.584;2023-04-26T05:42:52;6.20;;;2.50;;
25559;SDS011;13450;49.374;8.584;2023-04-26T05:45:17;6.00;;;2.70;;
25559;SDS011;13450;49.374;8.584;2023-04-26T05:47:43;7.07;;;3.13;;
25559;SDS011;13450;49.374;8.584;2023-04-26T05:50:08;7.70;;;2.55;;
25559;SDS011;13450;49.374;8.584;2023-04-26T05:52:34;7.35;;;3.22;;
25559;SDS011;13450;49.374;8.584;2023-04-26T05:54:59;6.57;;;2.45;;
25559;SDS011;13450;49.374;8.584;2023-04-26T05:57:28;5.75;;;2.80;;
25559;SDS011;13450;49.374;8.584;2023-04-26T05:59:53;6.07;;;2.58;;
25559;SDS011;13450;49.374;8.584;2023-04-26T06:02:18;8.27;;;2.85;;
25559;SDS011;13450;49.374;8.584;2023-04-26T06:04:44;8.15;;;3.17;;
25559;SDS011;13450;49.374;8.584;2023-04-26T06:07:10;7.93;;;3.05;;
25559;SDS011;13450;49.374;8.584;2023-04-26T06:09:35;9.13;;;3.15;;
25559;SDS011;13450;49.374;8.584;2023-04-26T06:12:03;4.63;;;2.50;;
25559;SDS011;13450;49.374;8.584;2023-04-26T06:14:29;5.88;;;2.85;;
25559;SDS011;13450;49.374;8.584;2023-04-26T06:16:55;8.10;;;2.95;;
25559;SDS011;13450;49.374;8.584;2023-04-26T06:19:21;7.25;;;2.90;;
25559;SDS011;13450;49.374;8.584;2023-04-26T06:21:46;6.45;;;2.58;;
25559;SDS011;13450;49.374;8.584;2023-04-26T06:24:12;6.53;;;3.10;;
25559;SDS011;13450;49.374;8.584;2023-04-26T06:26:38;7.45;;;3.05;;
25559;SDS011;13450;49.374;8.584;2023-04-26T06:29:04;6.45;;;3.03;;
25559;SDS011;13450;49.374;8.584;2023-04-26T06:31:29;9.00;;;2.83;;
25559;SDS011;13450;49.374;8.584;2023-04-26T06:33:55;7.40;;;2.88;;
25559;SDS011;13450;49.374;8.584;2023-04-26T06:36:20;6.65;;;2.70;;
25559;SDS011;13450;49.374;8.584;2023-04-26T06:38:49;6.25;;;2.92;;
25559;SDS011;13450;49.374;8.584;2023-04-26T06:41:14;8.63;;;3.05;;
25559;SDS011;13450;49.374;8.584;2023-04-26T06:43:42;7.93;;;3.10;;
25559;SDS011;13450;49.374;8.584;2023-04-26T06:46:10;7.53;;;3.35;;
25559;SDS011;13450;49.374;8.584;2023-04-26T06:48:35;5.85;;;3.10;;
25559;SDS011;13450;49.374;8.584;2023-04-26T06:51:07;6.05;;;2.97;;
25559;SDS011;13450;49.374;8.584;2023-04-26T06:53:34;8.15;;;3.15;;
25559;SDS011;13450;49.374;8.584;2023-04-26T06:55:59;6.57;;;2.47;;
25559;SDS011;13450;49.374;8.584;2023-04-26T06:58:25;7.65;;;3.30;;
25559;SDS011;13450;49.374;8.584;2023-04-26T07:00:50;6.13;;;2.97;;
25559;SDS011;13450;49.374;8.584;2023-04-26T07:03:18;5.72;;;2.72;;
25559;SDS011;13450;49.374;8.584;2023-04-26T07:05:46;8.52;;;3.40;;
25559;SDS011;13450;49.374;8.584;2023-04-26T07:08:12;7.22;;;3.08;;
25559;SDS011;13450;49.374;8.584;2023-04-26T07:10:40;8.38;;;3.13;;
25559;SDS011;13450;49.374;8.584;2023-04-26T07:13:05;8.25;;;2.65;;
25559;SDS011;13450;49.374;8.584;2023-04-26T07:15:31;7.78;;;3.38;;
25559;SDS011;13450;49.374;8.584;2023-04-26T07:17:57;8.63;;;2.67;;
25559;SDS011;13450;49.374;8.584;2023-04-26T07:20:22;8.80;;;3.20;;
25559;SDS011;13450;49.374;8.584;2023-04-26T07:22:50;5.32;;;2.72;;
25559;SDS011;13450;49.374;8.584;2023-04-26T07:25:15;8.93;;;2.95;;
25559;SDS011;13450;49.374;8.584;2023-04-26T07:27:41;9.93;;;3.17;;
25559;SDS011;13450;49.374;8.584;2023-04-26T07:30:07;10.27;;;3.33;;
25559;SDS011;13450;49.374;8.584;2023-04-26T07:32:33;8.63;;;2.97;;
25559;SDS011;13450;49.374;8.584;2023-04-26T07:34:58;6.75;;;2.60;;
25559;SDS011;13450;49.374;8.584;2023-04-26T07:37:23;6.95;;;2.88;;
25559;SDS011;13450;49.374;8.584;2023-04-26T07:39:49;9.65;;;2.88;;
25559;SDS011;13450;49.374;8.584;2023-04-26T07:42:14;6.22;;;2.92;;
25559;SDS011;13450;49.374;8.584;2023-04-26T07:44:39;4.80;;;2.47;;
25559;SDS011;13450;49.374;8.584;2023-04-26T07:47:10;9.18;;;2.90;;
25559;SDS011;13450;49.374;8.584;2023-04-26T07:49:36;6.82;;;2.63;;
25559;SDS011;13450;49.374;8.584;2023-04-26T07:52:04;7.72;;;2.53;;
25559;SDS011;13450;49.374;8.584;2023-04-26T07:54:29;5.70;;;2.78;;
25559;SDS011;13450;49.374;8.584;2023-04-26T07:56:55;7.13;;;2.40;;
25559;SDS011;13450;49.374;8.584;2023-04-26T07:59:20;7.78;;;2.35;;
25559;SDS011;13450;49.374;8.584;2023-04-26T08:01:46;7.30;;;2.88;;
25559;SDS011;13450;49.374;8.584;2023-04-26T08:04:12;6.80;;;2.50;;
25559;SDS011;13450;49.374;8.584;2023-04-26T08:06:37;5.90;;;2.25;;
25559;SDS011;13450;49.374;8.584;2023-04-26T08:09:03;6.40;;;2.70;;
25559;SDS011;13450;49.374;8.584;2023-04-26T08:11:29;8.35;;;2.38;;
25559;SDS011;13450;49.374;8.584;2023-04-26T08:13:54;9.63;;;3.10;;
25559;SDS011;13450;49.374;8.584;2023-04-26T08:16:19;7.60;;;2.47;;
25559;SDS011;13450;49.374;8.584;2023-04-26T08:18:45;4.65;;;2.20;;
25559;SDS011;13450;49.374;8.584;2023-04-26T08:21:10;6.32;;;2.40;;
25559;SDS011;13450;49.374;8.584;2023-04-26T08:23:36;5.07;;;2.40;;
25559;SDS011;13450;49.374;8.584;2023-04-26T08:26:03;5.28;;;2.40;;
25559;SDS011;13450;49.374;8.584;2023-04-26T08:28:29;5.10;;;2.50;;
25559;SDS011;13450;49.374;8.584;2023-04-26T08:30:54;6.30;;;2.40;;
25559;SDS011;13450;49.374;8.584;2023-04-26T08:33:20;6.15;;;2.35;;
25559;SDS011;13450;49.374;8.584;2023-04-26T08:35:45;5.20;;;2.30;;
25559;SDS011;13450;49.374;8.584;2023-04-26T08:38:10;6.07;;;2.40;;
25559;SDS011;13450;49.374;8.584;2023-04-26T08:40:39;8.13;;;2.63;;
25559;SDS011;13450;49.374;8.584;2023-04-26T08:43:07;5.97;;;1.90;;
25559;SDS011;13450;49.374;8.584;2023-04-26T08:45:34;9.23;;;2.30;;
25559;SDS011;13450;49.374;8.584;2023-04-26T08:48:05;6.20;;;2.10;;
25559;SDS011;13450;49.374;8.584;2023-04-26T08:50:35;7.28;;;2.30;;
25559;SDS011;13450;49.374;8.584;2023-04-26T08:53:03;5.18;;;1.98;;
25559;SDS011;13450;49.374;8.584;2023-04-26T08:55:29;3.97;;;2.10;;
25559;SDS011;13450;49.374;8.584;2023-04-26T08:57:57;6.93;;;2.22;;
25559;SDS011;13450;49.374;8.584;2023-04-26T09:00:24;5.80;;;2.13;;
25559;SDS011;13450;49.374;8.584;2023-04-26T09:02:50;6.22;;;2.30;;
25559;SDS011;13450;49.374;8.584;2023-04-26T09:05:17;6.40;;;1.98;;
25559;SDS011;13450;49.374;8.584;2023-04-26T09:07:47;6.78;;;2.67;;
25559;SDS011;13450;49.374;8.584;2023-04-26T09:10:16;8.95;;;2.25;;
25559;SDS011;13450;49.374;8.584;2023-04-26T09:12:44;6.47;;;2.65;;
25559;SDS011;13450;49.374;8.584;2023-04-26T09:15:10;6.57;;;2.25;;
25559;SDS011;13450;49.374;8.584;2023-04-26T09:17:36;5.05;;;1.92;;
25559;SDS011;13450;49.374;8.584;2023-04-26T09:22:51;6.15;;;2.15;;
25559;SDS011;13450;49.374;8.584;2023-04-26T09:25:26;6.68;;;1.88;;
25559;SDS011;13450;49.374;8.584;2023-04-26T09:27:53;5.82;;;2.05;;
25559;SDS011;13450;49.374;8.584;2023-04-26T09:30:18;5.22;;;2.08;;
25559;SDS011;13450;49.374;8.584;2023-04-26T09:32:46;5.45;;;2.25;;
25559;SDS011;13450;49.374;8.584;2023-04-26T09:38:08;5.45;;;2.00;;
25559;SDS011;13450;49.374;8.584;2023-04-26T09:40:52;4.78;;;2.15;;
25559;SDS011;13450;49.374;8.584;2023-04-26T09:43:23;5.57;;;1.90;;
25559;SDS011;13450;49.374;8.584;2023-04-26T09:45:52;5.75;;;1.92;;
25559;SDS011;13450;49.374;8.584;2023-04-26T09:50:46;5.47;;;1.92;;
25559;SDS011;13450;49.374;8.584;2023-04-26T09:53:25;6.63;;;1.65;;
25559;SDS011;13450;49.374;8.584;2023-04-26T09:55:52;6.30;;;1.80;;
25559;SDS011;13450;49.374;8.584;2023-04-26T09:58:18;9.50;;;2.10;;
25559;SDS011;13450;49.374;8.584;2023-04-26T10:00:47;5.15;;;1.67;;
25559;SDS011;13450;49.374;8.584;2023-04-26T10:03:18;6.63;;;2.10;;
25559;SDS011;13450;49.374;8.584;2023-04-26T10:05:44;5.68;;;1.38;;
25559;SDS011;13450;49.374;8.584;2023-04-26T10:08:13;4.47;;;1.42;;
25559;SDS011;13450;49.374;8.584;2023-04-26T10:10:41;6.43;;;1.75;;
25559;SDS011;13450;49.374;8.584;2023-04-26T10:13:13;3.63;;;1.60;;
25559;SDS011;13450;49.374;8.584;2023-04-26T10:15:39;3.90;;;1.40;;
25559;SDS011;13450;49.374;8.584;2023-04-26T10:18:07;5.53;;;2.00;;
25559;SDS011;13450;49.374;8.584;2023-04-26T10:20:35;3.60;;;1.55;;
25559;SDS011;13450;49.374;8.584;2023-04-26T10:25:47;5.85;;;1.70;;
25559;SDS011;13450;49.374;8.584;2023-04-26T10:28:13;4.30;;;1.50;;
25559;SDS011;13450;49.374;8.584;2023-04-26T10:30:55;5.53;;;1.40;;
25559;SDS011;13450;49.374;8.584;2023-04-26T10:33:24;5.90;;;1.58;;
25559;SDS011;13450;49.374;8.584;2023-04-26T10:38:31;5.30;;;1.77;;
25559;SDS011;13450;49.374;8.584;2023-04-26T10:49:50;4.88;;;1.63;;
25559;SDS011;13450;49.374;8.584;2023-04-26T10:52:19;3.67;;;1.50;;
25559;SDS011;13450;49.374;8.584;2023-04-26T10:54:53;3.53;;;1.50;;
25559;SDS011;13450;49.374;8.584;2023-04-26T10:57:20;3.97;;;1.75;;
25559;SDS011;13450;49.374;8.584;2023-04-26T11:02:44;4.97;;;1.50;;
25559;SDS011;13450;49.374;8.584;2023-04-26T11:05:31;5.32;;;1.60;;
25559;SDS011;13450;49.374;8.584;2023-04-26T11:10:49;4.35;;;1.45;;
25559;SDS011;13450;49.374;8.584;2023-04-26T11:13:16;4.97;;;1.50;;
25559;SDS011;13450;49.374;8.584;2023-04-26T11:15:43;4.47;;;1.38;;
25559;SDS011;13450;49.374;8.584;2023-04-26T11:18:09;8.45;;;3.00;;
25559;SDS011;13450;49.374;8.584;2023-04-26T11:20:34;5.20;;;1.50;;
25559;SDS011;13450;49.374;8.584;2023-04-26T11:23:00;4.78;;;1.90;;
25559;SDS011;13450;49.374;8.584;2023-04-26T11:25:28;7.07;;;1.90;;
25559;SDS011;13450;49.374;8.584;2023-04-26T11:27:59;3.25;;;1.60;;
25559;SDS011;13450;49.374;8.584;2023-04-26T11:30:30;5.15;;;1.70;;
25559;SDS011;13450;49.374;8.584;2023-04-26T11:32:59;3.75;;;1.30;;
25559;SDS011;13450;49.374;8.584;2023-04-26T11:35:28;3.13;;;1.42;;
25559;SDS011;13450;49.374;8.584;2023-04-26T11:37:57;5.47;;;1.40;;
25559;SDS011;13450;49.374;8.584;2023-04-26T11:40:29;6.28;;;1.83;;
25559;SDS011;13450;49.374;8.584;2023-04-26T11:42:59;4.10;;;1.52;;
25559;SDS011;13450;49.374;8.584;2023-04-26T11:45:31;4.60;;;1.63;;
25559;SDS011;13450;49.374;8.584;2023-04-26T11:47:57;3.78;;;1.38;;
25559;SDS011;13450;49.374;8.584;2023-04-26T11:50:25;5.45;;;1.55;;
25559;SDS011;13450;49.374;8.584;2023-04-26T11:52:54;6.60;;;1.92;;
25559;SDS011;13450;49.374;8.584;2023-04-26T11:55:26;5.57;;;2.13;;
25559;SDS011;13450;49.374;8.584;2023-04-26T11:57:53;3.78;;;1.50;;
25559;SDS011;13450;49.374;8.584;2023-04-26T12:00:19;8.20;;;2.20;;
25559;SDS011;13450;49.374;8.584;2023-04-26T12:07:48;4.45;;;1.60;;
25559;SDS011;13450;49.374;8.584;2023-04-26T12:10:17;3.30;;;1.60;;
25559;SDS011;13450;49.374;8.584;2023-04-26T12:12:48;4.05;;;1.77;;
25559;SDS011;13450;49.374;8.584;2023-04-26T12:15:17;3.70;;;1.40;;
25559;SDS011;13450;49.374;8.584;2023-04-26T12:17:52;4.35;;;1.60;;
25559;SDS011;13450;49.374;8.584;2023-04-26T12:20:18;3.92;;;1.70;;
25559;SDS011;13450;49.374;8.584;2023-04-26T12:22:59;4.60;;;1.60;;
25559;SDS011;13450;49.374;8.584;2023-04-26T12:25:30;5.22;;;1.90;;
25559;SDS011;13450;49.374;8.584;2023-04-26T12:27:56;3.63;;;1.50;;
25559;SDS011;13450;49.374;8.584;2023-04-26T12:30:21;5.57;;;1.85;;
25559;SDS011;13450;49.374;8.584;2023-04-26T12:32:47;6.55;;;1.85;;
25559;SDS011;13450;49.374;8.584;2023-04-26T12:35:12;4.75;;;1.50;;
25559;SDS011;13450;49.374;8.584;2023-04-26T12:37:38;6.57;;;1.63;;
25559;SDS011;13450;49.374;8.584;2023-04-26T12:40:03;6.47;;;2.35;;
25559;SDS011;13450;49.374;8.584;2023-04-26T12:42:31;5.20;;;2.00;;
25559;SDS011;13450;49.374;8.584;2023-04-26T12:44:56;3.25;;;1.50;;
25559;SDS011;13450;49.374;8.584;2023-04-26T12:47:21;6.28;;;1.60;;
25559;SDS011;13450;49.374;8.584;2023-04-26T12:49:49;4.75;;;1.60;;
25559;SDS011;13450;49.374;8.584;2023-04-26T12:52:14;3.63;;;1.55;;
25559;SDS011;13450;49.374;8.584;2023-04-26T12:54:40;3.00;;;1.60;;
25559;SDS011;13450;49.374;8.584;2023-04-26T12:57:05;4.75;;;1.70;;
25559;SDS011;13450;49.374;8.584;2023-04-26T12:59:30;4.57;;;1.90;;
25559;SDS011;13450;49.374;8.584;2023-04-26T13:01:56;6.38;;;1.88;;
25559;SDS011;13450;49.374;8.584;2023-04-26T13:04:21;4.07;;;1.80;;
25559;SDS011;13450;49.374;8.584;2023-04-26T13:06:47;3.58;;;2.10;;
25559;SDS011;13450;49.374;8.584;2023-04-26T13:09:12;5.22;;;1.98;;
25559;SDS011;13450;49.374;8.584;2023-04-26T13:11:38;5.32;;;1.67;;
25559;SDS011;13450;49.374;8.584;2023-04-26T13:14:05;6.18;;;1.88;;
25559;SDS011;13450;49.374;8.584;2023-04-26T13:16:31;6.68;;;1.80;;
25559;SDS011;13450;49.374;8.584;2023-04-26T13:18:57;6.35;;;1.85;;
25559;SDS011;13450;49.374;8.584;2023-04-26T13:21:23;4.90;;;1.90;;
25559;SDS011;13450;49.374;8.584;2023-04-26T13:23:50;6.28;;;1.67;;
25559;SDS011;13450;49.374;8.584;2023-04-26T13:26:16;4.20;;;1.45;;
25559;SDS011;13450;49.374;8.584;2023-04-26T13:28:42;3.42;;;1.60;;
25559;SDS011;13450;49.374;8.584;2023-04-26T13:31:07;4.03;;;1.60;;
25559;SDS011;13450;49.374;8.584;2023-04-26T13:33:35;4.50;;;1.60;;
25559;SDS011;13450;49.374;8.584;2023-04-26T13:36:00;4.32;;;1.80;;
25559;SDS011;13450;49.374;8.584;2023-04-26T13:38:26;4.55;;;1.83;;
25559;SDS011;13450;49.374;8.584;2023-04-26T13:40:53;4.05;;;1.30;;
25559;SDS011;13450;49.374;8.584;2023-04-26T13:43:18;4.00;;;1.58;;
25559;SDS011;13450;49.374;8.584;2023-04-26T13:45:44;4.57;;;1.75;;
25559;SDS011;13450;49.374;8.584;2023-04-26T13:48:09;3.33;;;1.50;;
25559;SDS011;13450;49.374;8.584;2023-04-26T13:50:35;5.10;;;1.50;;
25559;SDS011;13450;49.374;8.584;2023-04-26T13:53:03;6.60;;;1.75;;
25559;SDS011;13450;49.374;8.584;2023-04-26T13:55:30;4.50;;;1.63;;
25559;SDS011;13450;49.374;8.584;2023-04-26T13:57:55;5.68;;;1.60;;
25559;SDS011;13450;49.374;8.584;2023-04-26T14:00:21;4.22;;;1.73;;
25559;SDS011;13450;49.374;8.584;2023-04-26T14:05:14;3.13;;;1.20;;
25559;SDS011;13450;49.374;8.584;2023-04-26T14:07:41;4.95;;;1.92;;
25559;SDS011;13450;49.374;8.584;2023-04-26T14:10:07;4.15;;;1.30;;
25559;SDS011;13450;49.374;8.584;2023-04-26T14:12:32;2.75;;;1.30;;
25559;SDS011;13450;49.374;8.584;2023-04-26T14:14:58;5.40;;;1.45;;
25559;SDS011;13450;49.374;8.584;2023-04-26T14:17:27;5.85;;;1.60;;
25559;SDS011;13450;49.374;8.584;2023-04-26T14:19:53;3.53;;;1.35;;
25559;SDS011;13450;49.374;8.584;2023-04-26T14:22:21;3.47;;;1.40;;
25559;SDS011;13450;49.374;8.584;2023-04-26T14:24:47;4.60;;;1.75;;
25559;SDS011;13450;49.374;8.584;2023-04-26T14:27:13;5.28;;;1.48;;
25559;SDS011;13450;49.374;8.584;2023-04-26T14:29:38;4.82;;;1.58;;
25559;SDS011;13450;49.374;8.584;2023-04-26T14:32:03;2.67;;;1.35;;
25559;SDS011;13450;49.374;8.584;2023-04-26T14:34:30;4.90;;;1.70;;
25559;SDS011;13450;49.374;8.584;2023-04-26T14:36:55;5.13;;;1.70;;
25559;SDS011;13450;49.374;8.584;2023-04-26T14:39:25;4.28;;;1.40;;
25559;SDS011;13450;49.374;8.584;2023-04-26T14:41:50;4.50;;;1.58;;
25559;SDS011;13450;49.374;8.584;2023-04-26T14:44:16;6.57;;;1.55;;
25559;SDS011;13450;49.374;8.584;2023-04-26T14:46:41;5.18;;;1.67;;
25559;SDS011;13450;49.374;8.584;2023-04-26T14:49:06;4.68;;;1.52;;
25559;SDS011;13450;49.374;8.584;2023-04-26T14:51:34;4.13;;;1.53;;
25559;SDS011;13450;49.374;8.584;2023-04-26T14:54:00;4.38;;;1.58;;
25559;SDS011;13450;49.374;8.584;2023-04-26T14:56:30;3.63;;;1.50;;
25559;SDS011;13450;49.374;8.584;2023-04-26T14:58:56;3.45;;;1.20;;
25559;SDS011;13450;49.374;8.584;2023-04-26T15:01:25;3.90;;;1.38;;
25559;SDS011;13450;49.374;8.584;2023-04-26T15:03:50;3.05;;;1.33;;
25559;SDS011;13450;49.374;8.584;2023-04-26T15:06:15;2.83;;;1.30;;
25559;SDS011;13450;49.374;8.584;2023-04-26T15:08:41;6.78;;;1.60;;
25559;SDS011;13450;49.374;8.584;2023-04-26T15:11:06;3.10;;;1.42;;
25559;SDS011;13450;49.374;8.584;2023-04-26T15:13:31;5.60;;;1.70;;
25559;SDS011;13450;49.374;8.584;2023-04-26T15:15:57;3.30;;;1.48;;
25559;SDS011;13450;49.374;8.584;2023-04-26T15:18:27;3.45;;;1.40;;
25559;SDS011;13450;49.374;8.584;2023-04-26T15:20:53;4.35;;;1.30;;
25559;SDS011;13450;49.374;8.584;2023-04-26T15:23:18;3.45;;;1.30;;
25559;SDS011;13450;49.374;8.584;2023-04-26T15:25:46;5.35;;;1.50;;